sensor_id;sensor_type;location;lat;lon;timestamp;P1;durP1;ratioP1;P2;durP2;ratioP2
37657;SDS011;23500;53.268;8.308;2024-01-30T00:01:58;4.25;;;2.67;;
37657;SDS011;23500;53.268;8.308;2024-01-30T00:04:23;5.15;;;3.17;;
37657;SDS011;23500;53.268;8.308;2024-01-30T00:06:50;3.08;;;2.78;;
37657;SDS011;23500;53.268;8.308;2024-01-30T00:09:17;5.50;;;3.13;;
37657;SDS011;23500;53.268;8.308;2024-01-30T00:11:43;4.40;;;3.15;;
37657;SDS011;23500;53.268;8.308;2024-01-30T00:14:09;4.45;;;2.88;;
37657;SDS011;23500;53.268;8.308;2024-01-30T00:16:34;4.22;;;2.97;;
37657;SDS011;23500;53.268;8.308;2024-01-30T00:19:00;3.40;;;3.08;;
37657;SDS011;23500;53.268;8.308;2024-01-30T00:21:27;3.97;;;3.13;;
37657;SDS011;23500;53.268;8.308;2024-01-30T00:23:53;3.28;;;2.97;;
37657;SDS011;23500;53.268;8.308;2024-01-30T00:26:18;5.03;;;3.15;;
37657;SDS011;23500;53.268;8.308;2024-01-30T00:28:44;3.33;;;3.00;;
37657;SDS011;23500;53.268;8.308;2024-01-30T00:31:10;3.50;;;3.10;;
37657;SDS011;23500;53.268;8.308;2024-01-30T00:33:38;3.13;;;2.80;;
37657;SDS011;23500;53.268;8.308;2024-01-30T00:36:07;4.05;;;3.40;;
37657;SDS011;23500;53.268;8.308;2024-01-30T00:38:34;3.30;;;2.90;;
37657;SDS011;23500;53.268;8.308;2024-01-30T00:41:00;4.28;;;2.85;;
37657;SDS011;23500;53.268;8.308;2024-01-30T00:43:27;3.20;;;2.90;;
37657;SDS011;23500;53.268;8.308;2024-01-30T00:45:53;4.20;;;2.90;;
37657;SDS011;23500;53.268;8.308;2024-01-30T00:48:19;3.40;;;3.00;;
37657;SDS011;23500;53.268;8.308;2024-01-30T00:50:45;3.42;;;2.80;;
37657;SDS011;23500;53.268;8.308;2024-01-30T00:53:11;3.67;;;3.00;;
37657;SDS011;23500;53.268;8.308;2024-01-30T00:55:37;3.45;;;2.90;;
37657;SDS011;23500;53.268;8.308;2024-01-30T00:58:03;4.82;;;3.17;;
37657;SDS011;23500;53.268;8.308;2024-01-30T01:00:29;3.58;;;3.08;;
37657;SDS011;23500;53.268;8.308;2024-01-30T01:02:56;4.53;;;2.70;;
37657;SDS011;23500;53.268;8.308;2024-01-30T01:05:21;3.63;;;3.00;;
37657;SDS011;23500;53.268;8.308;2024-01-30T01:07:47;3.13;;;2.83;;
37657;SDS011;23500;53.268;8.308;2024-01-30T01:10:13;4.00;;;2.90;;
37657;SDS011;23500;53.268;8.308;2024-01-30T01:12:40;4.47;;;3.10;;
37657;SDS011;23500;53.268;8.308;2024-01-30T01:15:06;5.97;;;3.45;;
37657;SDS011;23500;53.268;8.308;2024-01-30T01:17:34;4.82;;;3.15;;
37657;SDS011;23500;53.268;8.308;2024-01-30T01:20:00;4.82;;;2.85;;
37657;SDS011;23500;53.268;8.308;2024-01-30T01:22:27;3.88;;;2.83;;
37657;SDS011;23500;53.268;8.308;2024-01-30T01:24:53;3.25;;;2.80;;
37657;SDS011;23500;53.268;8.308;2024-01-30T01:27:18;2.78;;;2.58;;
37657;SDS011;23500;53.268;8.308;2024-01-30T01:29:45;5.75;;;3.13;;
37657;SDS011;23500;53.268;8.308;2024-01-30T01:32:11;4.85;;;3.22;;
37657;SDS011;23500;53.268;8.308;2024-01-30T01:34:36;3.38;;;2.92;;
37657;SDS011;23500;53.268;8.308;2024-01-30T01:37:02;5.00;;;3.00;;
37657;SDS011;23500;53.268;8.308;2024-01-30T01:39:28;3.45;;;2.97;;
37657;SDS011;23500;53.268;8.308;2024-01-30T01:41:54;5.35;;;2.75;;
37657;SDS011;23500;53.268;8.308;2024-01-30T01:44:19;3.08;;;2.78;;
37657;SDS011;23500;53.268;8.308;2024-01-30T01:46:45;6.55;;;3.10;;
37657;SDS011;23500;53.268;8.308;2024-01-30T01:49:12;2.90;;;2.60;;
37657;SDS011;23500;53.268;8.308;2024-01-30T01:51:39;3.55;;;2.65;;
37657;SDS011;23500;53.268;8.308;2024-01-30T01:54:06;4.40;;;3.22;;
37657;SDS011;23500;53.268;8.308;2024-01-30T01:56:33;3.50;;;3.00;;
37657;SDS011;23500;53.268;8.308;2024-01-30T01:59:00;3.38;;;3.08;;
37657;SDS011;23500;53.268;8.308;2024-01-30T02:01:30;3.70;;;3.08;;
37657;SDS011;23500;53.268;8.308;2024-01-30T02:03:58;4.50;;;3.28;;
37657;SDS011;23500;53.268;8.308;2024-01-30T02:06:24;3.55;;;2.80;;
37657;SDS011;23500;53.268;8.308;2024-01-30T02:08:50;3.92;;;2.95;;
37657;SDS011;23500;53.268;8.308;2024-01-30T02:11:15;3.40;;;3.10;;
37657;SDS011;23500;53.268;8.308;2024-01-30T02:13:42;3.13;;;2.83;;
37657;SDS011;23500;53.268;8.308;2024-01-30T02:16:07;3.15;;;2.75;;
37657;SDS011;23500;53.268;8.308;2024-01-30T02:18:33;4.63;;;3.10;;
37657;SDS011;23500;53.268;8.308;2024-01-30T02:20:59;3.53;;;3.00;;
37657;SDS011;23500;53.268;8.308;2024-01-30T02:23:29;3.80;;;2.60;;
37657;SDS011;23500;53.268;8.308;2024-01-30T02:25:58;3.83;;;3.15;;
37657;SDS011;23500;53.268;8.308;2024-01-30T02:28:23;4.28;;;2.90;;
37657;SDS011;23500;53.268;8.308;2024-01-30T02:30:49;3.58;;;3.10;;
37657;SDS011;23500;53.268;8.308;2024-01-30T02:33:15;3.45;;;3.10;;
37657;SDS011;23500;53.268;8.308;2024-01-30T02:35:41;3.92;;;3.05;;
37657;SDS011;23500;53.268;8.308;2024-01-30T02:38:06;3.92;;;3.03;;
37657;SDS011;23500;53.268;8.308;2024-01-30T02:40:32;3.40;;;3.00;;
37657;SDS011;23500;53.268;8.308;2024-01-30T02:42:58;3.40;;;2.55;;
37657;SDS011;23500;53.268;8.308;2024-01-30T02:45:25;3.35;;;2.47;;
37657;SDS011;23500;53.268;8.308;2024-01-30T02:47:50;3.60;;;3.00;;
37657;SDS011;23500;53.268;8.308;2024-01-30T02:50:17;3.08;;;2.75;;
37657;SDS011;23500;53.268;8.308;2024-01-30T02:52:42;4.80;;;3.00;;
37657;SDS011;23500;53.268;8.308;2024-01-30T02:55:11;3.63;;;2.78;;
37657;SDS011;23500;53.268;8.308;2024-01-30T02:57:37;3.75;;;3.10;;
37657;SDS011;23500;53.268;8.308;2024-01-30T03:00:04;3.22;;;2.72;;
37657;SDS011;23500;53.268;8.308;2024-01-30T03:02:31;3.03;;;2.70;;
37657;SDS011;23500;53.268;8.308;2024-01-30T03:04:57;3.33;;;2.90;;
37657;SDS011;23500;53.268;8.308;2024-01-30T03:07:23;3.13;;;2.65;;
37657;SDS011;23500;53.268;8.308;2024-01-30T03:09:49;3.40;;;2.85;;
37657;SDS011;23500;53.268;8.308;2024-01-30T03:12:14;2.92;;;2.63;;
37657;SDS011;23500;53.268;8.308;2024-01-30T03:14:40;4.40;;;2.78;;
37657;SDS011;23500;53.268;8.308;2024-01-30T03:17:05;4.22;;;2.90;;
37657;SDS011;23500;53.268;8.308;2024-01-30T03:19:31;2.55;;;2.35;;
37657;SDS011;23500;53.268;8.308;2024-01-30T03:21:57;5.03;;;2.50;;
37657;SDS011;23500;53.268;8.308;2024-01-30T03:24:23;3.55;;;3.03;;
37657;SDS011;23500;53.268;8.308;2024-01-30T03:26:48;3.42;;;2.60;;
37657;SDS011;23500;53.268;8.308;2024-01-30T03:29:14;2.88;;;2.58;;
37657;SDS011;23500;53.268;8.308;2024-01-30T03:31:40;2.80;;;2.60;;
37657;SDS011;23500;53.268;8.308;2024-01-30T03:34:06;4.90;;;3.03;;
37657;SDS011;23500;53.268;8.308;2024-01-30T03:36:32;3.58;;;2.78;;
37657;SDS011;23500;53.268;8.308;2024-01-30T03:38:59;3.38;;;2.90;;
37657;SDS011;23500;53.268;8.308;2024-01-30T03:41:25;3.35;;;2.72;;
37657;SDS011;23500;53.268;8.308;2024-01-30T03:43:51;3.15;;;2.85;;
37657;SDS011;23500;53.268;8.308;2024-01-30T03:46:17;4.05;;;2.90;;
37657;SDS011;23500;53.268;8.308;2024-01-30T03:48:42;4.68;;;3.17;;
37657;SDS011;23500;53.268;8.308;2024-01-30T03:51:08;3.42;;;2.88;;
37657;SDS011;23500;53.268;8.308;2024-01-30T03:53:39;3.28;;;2.97;;
37657;SDS011;23500;53.268;8.308;2024-01-30T03:56:06;3.60;;;2.80;;
37657;SDS011;23500;53.268;8.308;2024-01-30T03:58:32;2.95;;;2.67;;
37657;SDS011;23500;53.268;8.308;2024-01-30T04:00:57;2.75;;;2.53;;
37657;SDS011;23500;53.268;8.308;2024-01-30T04:03:23;3.95;;;2.72;;
37657;SDS011;23500;53.268;8.308;2024-01-30T04:05:49;3.00;;;2.70;;
37657;SDS011;23500;53.268;8.308;2024-01-30T04:08:16;3.28;;;2.55;;
37657;SDS011;23500;53.268;8.308;2024-01-30T04:10:42;2.45;;;2.25;;
37657;SDS011;23500;53.268;8.308;2024-01-30T04:13:08;3.00;;;2.60;;
37657;SDS011;23500;53.268;8.308;2024-01-30T04:15:34;3.22;;;2.92;;
37657;SDS011;23500;53.268;8.308;2024-01-30T04:18:00;3.10;;;2.75;;
37657;SDS011;23500;53.268;8.308;2024-01-30T04:20:25;3.17;;;2.88;;
37657;SDS011;23500;53.268;8.308;2024-01-30T04:22:51;3.00;;;2.80;;
37657;SDS011;23500;53.268;8.308;2024-01-30T04:25:17;3.38;;;2.72;;
37657;SDS011;23500;53.268;8.308;2024-01-30T04:27:43;3.85;;;2.90;;
37657;SDS011;23500;53.268;8.308;2024-01-30T04:30:08;2.92;;;2.70;;
37657;SDS011;23500;53.268;8.308;2024-01-30T04:32:35;4.28;;;2.70;;
37657;SDS011;23500;53.268;8.308;2024-01-30T04:35:01;3.50;;;2.80;;
37657;SDS011;23500;53.268;8.308;2024-01-30T04:37:26;7.40;;;2.97;;
37657;SDS011;23500;53.268;8.308;2024-01-30T04:39:52;3.53;;;2.63;;
37657;SDS011;23500;53.268;8.308;2024-01-30T04:42:18;2.85;;;2.58;;
37657;SDS011;23500;53.268;8.308;2024-01-30T04:44:44;3.45;;;2.70;;
37657;SDS011;23500;53.268;8.308;2024-01-30T04:47:10;2.85;;;2.65;;
37657;SDS011;23500;53.268;8.308;2024-01-30T04:49:38;3.08;;;2.78;;
37657;SDS011;23500;53.268;8.308;2024-01-30T04:52:07;3.92;;;2.65;;
37657;SDS011;23500;53.268;8.308;2024-01-30T04:54:34;3.15;;;2.58;;
37657;SDS011;23500;53.268;8.308;2024-01-30T04:57:00;3.38;;;2.53;;
37657;SDS011;23500;53.268;8.308;2024-01-30T04:59:26;4.20;;;2.88;;
37657;SDS011;23500;53.268;8.308;2024-01-30T05:01:52;2.67;;;2.47;;
37657;SDS011;23500;53.268;8.308;2024-01-30T05:04:18;2.70;;;2.50;;
37657;SDS011;23500;53.268;8.308;2024-01-30T05:06:44;2.90;;;2.40;;
37657;SDS011;23500;53.268;8.308;2024-01-30T05:09:10;2.90;;;2.60;;
37657;SDS011;23500;53.268;8.308;2024-01-30T05:11:36;2.80;;;2.60;;
37657;SDS011;23500;53.268;8.308;2024-01-30T05:14:03;4.57;;;2.80;;
37657;SDS011;23500;53.268;8.308;2024-01-30T05:16:30;3.05;;;2.55;;
37657;SDS011;23500;53.268;8.308;2024-01-30T05:18:56;2.90;;;2.60;;
37657;SDS011;23500;53.268;8.308;2024-01-30T05:21:22;3.78;;;2.75;;
37657;SDS011;23500;53.268;8.308;2024-01-30T05:23:48;3.15;;;2.85;;
37657;SDS011;23500;53.268;8.308;2024-01-30T05:26:14;4.15;;;2.80;;
37657;SDS011;23500;53.268;8.308;2024-01-30T05:28:40;3.17;;;2.70;;
37657;SDS011;23500;53.268;8.308;2024-01-30T05:31:05;3.13;;;2.80;;
37657;SDS011;23500;53.268;8.308;2024-01-30T05:33:31;2.63;;;2.38;;
37657;SDS011;23500;53.268;8.308;2024-01-30T05:35:57;3.53;;;2.65;;
37657;SDS011;23500;53.268;8.308;2024-01-30T05:38:22;2.70;;;2.35;;
37657;SDS011;23500;53.268;8.308;2024-01-30T05:40:48;2.75;;;2.47;;
37657;SDS011;23500;53.268;8.308;2024-01-30T05:43:14;3.25;;;2.63;;
37657;SDS011;23500;53.268;8.308;2024-01-30T05:45:40;3.35;;;2.65;;
37657;SDS011;23500;53.268;8.308;2024-01-30T05:48:06;2.67;;;2.47;;
37657;SDS011;23500;53.268;8.308;2024-01-30T05:50:31;2.40;;;2.13;;
37657;SDS011;23500;53.268;8.308;2024-01-30T05:52:57;3.33;;;2.42;;
37657;SDS011;23500;53.268;8.308;2024-01-30T05:55:23;2.90;;;2.50;;
37657;SDS011;23500;53.268;8.308;2024-01-30T05:57:48;3.78;;;2.50;;
37657;SDS011;23500;53.268;8.308;2024-01-30T06:00:14;2.88;;;2.60;;
37657;SDS011;23500;53.268;8.308;2024-01-30T06:02:40;3.80;;;2.50;;
37657;SDS011;23500;53.268;8.308;2024-01-30T06:05:06;2.50;;;2.30;;
37657;SDS011;23500;53.268;8.308;2024-01-30T06:07:32;2.63;;;2.40;;
37657;SDS011;23500;53.268;8.308;2024-01-30T06:09:58;2.58;;;2.38;;
37657;SDS011;23500;53.268;8.308;2024-01-30T06:12:26;3.55;;;2.50;;
37657;SDS011;23500;53.268;8.308;2024-01-30T06:14:53;3.55;;;2.42;;
37657;SDS011;23500;53.268;8.308;2024-01-30T06:17:21;2.80;;;2.60;;
37657;SDS011;23500;53.268;8.308;2024-01-30T06:19:50;2.35;;;2.15;;
37657;SDS011;23500;53.268;8.308;2024-01-30T06:22:15;2.78;;;2.33;;
37657;SDS011;23500;53.268;8.308;2024-01-30T06:24:41;2.47;;;2.25;;
37657;SDS011;23500;53.268;8.308;2024-01-30T06:27:09;9.07;;;3.58;;
37657;SDS011;23500;53.268;8.308;2024-01-30T06:29:35;24.42;;;5.97;;
37657;SDS011;23500;53.268;8.308;2024-01-30T06:32:01;64.93;;;15.23;;
37657;SDS011;23500;53.268;8.308;2024-01-30T06:34:27;51.53;;;12.10;;
37657;SDS011;23500;53.268;8.308;2024-01-30T06:36:52;45.17;;;11.88;;
37657;SDS011;23500;53.268;8.308;2024-01-30T06:39:18;49.17;;;10.63;;
37657;SDS011;23500;53.268;8.308;2024-01-30T06:41:44;53.30;;;10.77;;
37657;SDS011;23500;53.268;8.308;2024-01-30T06:44:11;47.55;;;11.80;;
37657;SDS011;23500;53.268;8.308;2024-01-30T06:46:38;43.40;;;9.95;;
37657;SDS011;23500;53.268;8.308;2024-01-30T06:49:04;36.08;;;9.75;;
37657;SDS011;23500;53.268;8.308;2024-01-30T06:51:29;45.83;;;9.32;;
37657;SDS011;23500;53.268;8.308;2024-01-30T06:53:55;33.47;;;9.68;;
37657;SDS011;23500;53.268;8.308;2024-01-30T06:56:21;35.90;;;10.13;;
37657;SDS011;23500;53.268;8.308;2024-01-30T06:58:48;31.25;;;9.10;;
37657;SDS011;23500;53.268;8.308;2024-01-30T07:01:14;29.02;;;8.48;;
37657;SDS011;23500;53.268;8.308;2024-01-30T07:03:40;28.85;;;8.52;;
37657;SDS011;23500;53.268;8.308;2024-01-30T07:06:06;29.63;;;8.05;;
37657;SDS011;23500;53.268;8.308;2024-01-30T07:08:31;26.85;;;8.27;;
37657;SDS011;23500;53.268;8.308;2024-01-30T07:10:57;21.17;;;7.43;;
37657;SDS011;23500;53.268;8.308;2024-01-30T07:13:23;25.77;;;7.55;;
37657;SDS011;23500;53.268;8.308;2024-01-30T07:15:49;21.95;;;6.68;;
37657;SDS011;23500;53.268;8.308;2024-01-30T07:18:15;20.48;;;7.20;;
37657;SDS011;23500;53.268;8.308;2024-01-30T07:20:41;24.90;;;7.43;;
37657;SDS011;23500;53.268;8.308;2024-01-30T07:23:11;21.38;;;6.57;;
37657;SDS011;23500;53.268;8.308;2024-01-30T07:25:39;25.13;;;7.15;;
37657;SDS011;23500;53.268;8.308;2024-01-30T07:28:06;19.90;;;7.70;;
37657;SDS011;23500;53.268;8.308;2024-01-30T07:30:34;23.00;;;7.03;;
37657;SDS011;23500;53.268;8.308;2024-01-30T07:33:00;21.30;;;7.45;;
37657;SDS011;23500;53.268;8.308;2024-01-30T07:35:26;16.98;;;6.60;;
37657;SDS011;23500;53.268;8.308;2024-01-30T07:37:51;23.20;;;6.50;;
37657;SDS011;23500;53.268;8.308;2024-01-30T07:40:17;20.45;;;6.35;;
37657;SDS011;23500;53.268;8.308;2024-01-30T07:42:43;16.73;;;7.20;;
37657;SDS011;23500;53.268;8.308;2024-01-30T07:45:09;17.08;;;6.93;;
37657;SDS011;23500;53.268;8.308;2024-01-30T07:47:34;16.88;;;6.43;;
37657;SDS011;23500;53.268;8.308;2024-01-30T07:50:00;16.88;;;6.20;;
37657;SDS011;23500;53.268;8.308;2024-01-30T07:52:26;19.15;;;6.65;;
37657;SDS011;23500;53.268;8.308;2024-01-30T07:54:51;16.58;;;6.68;;
37657;SDS011;23500;53.268;8.308;2024-01-30T07:57:17;17.85;;;6.57;;
37657;SDS011;23500;53.268;8.308;2024-01-30T07:59:43;17.10;;;6.75;;
37657;SDS011;23500;53.268;8.308;2024-01-30T08:02:12;15.68;;;6.15;;
37657;SDS011;23500;53.268;8.308;2024-01-30T08:04:38;20.40;;;6.18;;
37657;SDS011;23500;53.268;8.308;2024-01-30T08:07:04;16.25;;;6.28;;
37657;SDS011;23500;53.268;8.308;2024-01-30T08:09:29;15.50;;;5.53;;
37657;SDS011;23500;53.268;8.308;2024-01-30T08:11:55;12.73;;;5.15;;
37657;SDS011;23500;53.268;8.308;2024-01-30T08:14:21;14.52;;;5.40;;
37657;SDS011;23500;53.268;8.308;2024-01-30T08:16:47;13.90;;;5.75;;
37657;SDS011;23500;53.268;8.308;2024-01-30T08:19:14;12.95;;;5.53;;
37657;SDS011;23500;53.268;8.308;2024-01-30T08:21:40;12.68;;;5.18;;
37657;SDS011;23500;53.268;8.308;2024-01-30T08:24:06;12.48;;;5.63;;
37657;SDS011;23500;53.268;8.308;2024-01-30T08:26:32;12.15;;;5.57;;
37657;SDS011;23500;53.268;8.308;2024-01-30T08:28:58;15.35;;;5.50;;
37657;SDS011;23500;53.268;8.308;2024-01-30T08:31:24;11.10;;;5.22;;
37657;SDS011;23500;53.268;8.308;2024-01-30T08:33:50;16.08;;;5.07;;
37657;SDS011;23500;53.268;8.308;2024-01-30T08:36:16;14.02;;;5.15;;
37657;SDS011;23500;53.268;8.308;2024-01-30T08:38:42;11.10;;;4.95;;
37657;SDS011;23500;53.268;8.308;2024-01-30T08:41:08;11.02;;;4.90;;
37657;SDS011;23500;53.268;8.308;2024-01-30T08:43:34;14.68;;;5.15;;
37657;SDS011;23500;53.268;8.308;2024-01-30T08:46:00;12.85;;;4.80;;
37657;SDS011;23500;53.268;8.308;2024-01-30T08:48:25;11.30;;;4.88;;
37657;SDS011;23500;53.268;8.308;2024-01-30T08:50:51;11.43;;;4.85;;
37657;SDS011;23500;53.268;8.308;2024-01-30T08:53:17;10.88;;;5.18;;
37657;SDS011;23500;53.268;8.308;2024-01-30T08:55:43;9.95;;;4.50;;
37657;SDS011;23500;53.268;8.308;2024-01-30T08:58:09;11.50;;;4.68;;
37657;SDS011;23500;53.268;8.308;2024-01-30T09:00:36;11.88;;;4.47;;
37657;SDS011;23500;53.268;8.308;2024-01-30T09:03:02;11.82;;;5.03;;
37657;SDS011;23500;53.268;8.308;2024-01-30T09:05:28;10.40;;;4.93;;
37657;SDS011;23500;53.268;8.308;2024-01-30T09:07:54;12.85;;;5.25;;
37657;SDS011;23500;53.268;8.308;2024-01-30T09:10:19;10.10;;;4.25;;
37657;SDS011;23500;53.268;8.308;2024-01-30T09:12:45;10.85;;;4.75;;
37657;SDS011;23500;53.268;8.308;2024-01-30T09:15:11;10.27;;;4.80;;
37657;SDS011;23500;53.268;8.308;2024-01-30T09:17:37;9.07;;;4.53;;
37657;SDS011;23500;53.268;8.308;2024-01-30T09:20:03;12.43;;;5.22;;
37657;SDS011;23500;53.268;8.308;2024-01-30T09:22:29;7.10;;;4.05;;
37657;SDS011;23500;53.268;8.308;2024-01-30T09:24:55;11.38;;;4.97;;
37657;SDS011;23500;53.268;8.308;2024-01-30T09:27:21;9.18;;;4.50;;
37657;SDS011;23500;53.268;8.308;2024-01-30T09:29:46;8.40;;;4.55;;
37657;SDS011;23500;53.268;8.308;2024-01-30T09:32:12;7.97;;;4.65;;
37657;SDS011;23500;53.268;8.308;2024-01-30T09:34:37;9.23;;;4.68;;
37657;SDS011;23500;53.268;8.308;2024-01-30T09:37:04;11.35;;;4.22;;
37657;SDS011;23500;53.268;8.308;2024-01-30T09:39:30;9.10;;;4.32;;
37657;SDS011;23500;53.268;8.308;2024-01-30T09:42:05;9.32;;;4.38;;
37657;SDS011;23500;53.268;8.308;2024-01-30T09:44:34;9.02;;;4.20;;
37657;SDS011;23500;53.268;8.308;2024-01-30T09:47:02;9.95;;;4.40;;
37657;SDS011;23500;53.268;8.308;2024-01-30T09:49:33;9.15;;;4.57;;
37657;SDS011;23500;53.268;8.308;2024-01-30T09:52:00;9.98;;;4.75;;
37657;SDS011;23500;53.268;8.308;2024-01-30T09:54:30;9.82;;;4.07;;
37657;SDS011;23500;53.268;8.308;2024-01-30T09:56:56;8.30;;;4.43;;
37657;SDS011;23500;53.268;8.308;2024-01-30T09:59:23;9.70;;;4.47;;
37657;SDS011;23500;53.268;8.308;2024-01-30T10:01:49;9.95;;;4.22;;
37657;SDS011;23500;53.268;8.308;2024-01-30T10:04:16;8.30;;;3.95;;
37657;SDS011;23500;53.268;8.308;2024-01-30T10:06:42;11.30;;;4.38;;
37657;SDS011;23500;53.268;8.308;2024-01-30T10:09:08;8.07;;;4.47;;
37657;SDS011;23500;53.268;8.308;2024-01-30T10:11:34;7.07;;;3.63;;
37657;SDS011;23500;53.268;8.308;2024-01-30T10:14:01;9.88;;;4.07;;
37657;SDS011;23500;53.268;8.308;2024-01-30T10:16:27;6.88;;;3.85;;
37657;SDS011;23500;53.268;8.308;2024-01-30T10:18:53;9.00;;;4.50;;
37657;SDS011;23500;53.268;8.308;2024-01-30T10:21:18;9.35;;;4.68;;
37657;SDS011;23500;53.268;8.308;2024-01-30T10:23:44;7.95;;;3.80;;
37657;SDS011;23500;53.268;8.308;2024-01-30T10:26:10;6.95;;;4.25;;
37657;SDS011;23500;53.268;8.308;2024-01-30T10:28:35;9.10;;;4.32;;
37657;SDS011;23500;53.268;8.308;2024-01-30T10:31:01;7.28;;;4.30;;
37657;SDS011;23500;53.268;8.308;2024-01-30T10:33:30;6.82;;;3.47;;
37657;SDS011;23500;53.268;8.308;2024-01-30T10:36:03;6.85;;;4.00;;
37657;SDS011;23500;53.268;8.308;2024-01-30T10:38:30;8.77;;;4.18;;
37657;SDS011;23500;53.268;8.308;2024-01-30T10:40:57;9.57;;;4.20;;
37657;SDS011;23500;53.268;8.308;2024-01-30T10:43:24;6.93;;;3.95;;
37657;SDS011;23500;53.268;8.308;2024-01-30T10:45:57;7.20;;;3.47;;
37657;SDS011;23500;53.268;8.308;2024-01-30T10:48:29;9.30;;;4.22;;
37657;SDS011;23500;53.268;8.308;2024-01-30T10:50:57;8.55;;;3.95;;
37657;SDS011;23500;53.268;8.308;2024-01-30T10:53:25;9.02;;;3.92;;
37657;SDS011;23500;53.268;8.308;2024-01-30T11:27:59;6.68;;;3.42;;
37657;SDS011;23500;53.268;8.308;2024-01-30T11:30:25;6.88;;;3.22;;
37657;SDS011;23500;53.268;8.308;2024-01-30T11:32:58;6.13;;;3.22;;
37657;SDS011;23500;53.268;8.308;2024-01-30T11:35:30;6.30;;;3.30;;
37657;SDS011;23500;53.268;8.308;2024-01-30T11:38:00;6.53;;;3.28;;
37657;SDS011;23500;53.268;8.308;2024-01-30T11:40:29;9.05;;;3.67;;
37657;SDS011;23500;53.268;8.308;2024-01-30T11:42:56;5.00;;;3.30;;
37657;SDS011;23500;53.268;8.308;2024-01-30T11:45:24;7.97;;;3.40;;
37657;SDS011;23500;53.268;8.308;2024-01-30T11:47:50;6.60;;;3.40;;
37657;SDS011;23500;53.268;8.308;2024-01-30T11:50:16;3.78;;;2.88;;
37657;SDS011;23500;53.268;8.308;2024-01-30T11:52:41;4.95;;;3.10;;
37657;SDS011;23500;53.268;8.308;2024-01-30T11:55:08;8.68;;;3.08;;
37657;SDS011;23500;53.268;8.308;2024-01-30T11:57:35;6.10;;;3.42;;
37657;SDS011;23500;53.268;8.308;2024-01-30T12:00:02;5.78;;;3.15;;
37657;SDS011;23500;53.268;8.308;2024-01-30T12:02:41;4.97;;;3.13;;
37657;SDS011;23500;53.268;8.308;2024-01-30T12:05:07;6.22;;;3.20;;
37657;SDS011;23500;53.268;8.308;2024-01-30T12:07:34;5.78;;;3.35;;
37657;SDS011;23500;53.268;8.308;2024-01-30T12:10:01;6.40;;;3.17;;
37657;SDS011;23500;53.268;8.308;2024-01-30T12:12:27;6.53;;;3.40;;
37657;SDS011;23500;53.268;8.308;2024-01-30T12:14:54;5.82;;;3.13;;
37657;SDS011;23500;53.268;8.308;2024-01-30T12:17:30;4.63;;;2.85;;
37657;SDS011;23500;53.268;8.308;2024-01-30T12:20:09;4.22;;;3.08;;
37657;SDS011;23500;53.268;8.308;2024-01-30T12:22:40;5.15;;;3.03;;
37657;SDS011;23500;53.268;8.308;2024-01-30T12:25:10;5.53;;;3.20;;
37657;SDS011;23500;53.268;8.308;2024-01-30T12:27:38;6.38;;;3.05;;
37657;SDS011;23500;53.268;8.308;2024-01-30T12:30:07;8.13;;;3.30;;
37657;SDS011;23500;53.268;8.308;2024-01-30T12:32:39;6.30;;;3.03;;
37657;SDS011;23500;53.268;8.308;2024-01-30T12:35:13;5.60;;;2.90;;
37657;SDS011;23500;53.268;8.308;2024-01-30T12:37:40;5.18;;;3.30;;
37657;SDS011;23500;53.268;8.308;2024-01-30T12:40:07;5.60;;;3.20;;
37657;SDS011;23500;53.268;8.308;2024-01-30T12:42:34;5.28;;;3.10;;
37657;SDS011;23500;53.268;8.308;2024-01-30T12:45:01;6.50;;;3.55;;
37657;SDS011;23500;53.268;8.308;2024-01-30T12:47:28;5.10;;;3.28;;
37657;SDS011;23500;53.268;8.308;2024-01-30T12:49:54;4.55;;;2.95;;
37657;SDS011;23500;53.268;8.308;2024-01-30T12:52:20;8.45;;;3.38;;
37657;SDS011;23500;53.268;8.308;2024-01-30T12:54:46;5.22;;;3.28;;
37657;SDS011;23500;53.268;8.308;2024-01-30T12:57:12;4.45;;;2.78;;
37657;SDS011;23500;53.268;8.308;2024-01-30T12:59:38;7.53;;;3.13;;
37657;SDS011;23500;53.268;8.308;2024-01-30T13:02:04;5.72;;;2.83;;
37657;SDS011;23500;53.268;8.308;2024-01-30T13:04:30;6.50;;;3.05;;
37657;SDS011;23500;53.268;8.308;2024-01-30T13:06:56;6.47;;;2.85;;
37657;SDS011;23500;53.268;8.308;2024-01-30T13:09:23;7.90;;;3.00;;
37657;SDS011;23500;53.268;8.308;2024-01-30T13:11:49;3.15;;;2.45;;
37657;SDS011;23500;53.268;8.308;2024-01-30T13:14:16;3.58;;;2.83;;
37657;SDS011;23500;53.268;8.308;2024-01-30T13:16:42;4.90;;;2.80;;
37657;SDS011;23500;53.268;8.308;2024-01-30T13:19:08;7.65;;;3.40;;
37657;SDS011;23500;53.268;8.308;2024-01-30T13:21:34;5.80;;;3.15;;
37657;SDS011;23500;53.268;8.308;2024-01-30T13:23:59;4.82;;;3.03;;
37657;SDS011;23500;53.268;8.308;2024-01-30T13:26:25;4.60;;;2.88;;
37657;SDS011;23500;53.268;8.308;2024-01-30T13:28:51;5.07;;;2.92;;
37657;SDS011;23500;53.268;8.308;2024-01-30T13:31:16;6.00;;;3.42;;
37657;SDS011;23500;53.268;8.308;2024-01-30T13:33:43;4.90;;;3.08;;
37657;SDS011;23500;53.268;8.308;2024-01-30T13:36:09;4.72;;;2.80;;
37657;SDS011;23500;53.268;8.308;2024-01-30T13:38:36;7.22;;;3.40;;
37657;SDS011;23500;53.268;8.308;2024-01-30T13:41:02;5.18;;;2.90;;
37657;SDS011;23500;53.268;8.308;2024-01-30T13:43:28;6.05;;;2.85;;
37657;SDS011;23500;53.268;8.308;2024-01-30T13:45:53;4.97;;;2.90;;
37657;SDS011;23500;53.268;8.308;2024-01-30T13:48:19;4.90;;;2.85;;
37657;SDS011;23500;53.268;8.308;2024-01-30T13:50:45;5.30;;;3.45;;
37657;SDS011;23500;53.268;8.308;2024-01-30T13:53:11;7.07;;;3.30;;
37657;SDS011;23500;53.268;8.308;2024-01-30T13:55:37;5.38;;;3.20;;
37657;SDS011;23500;53.268;8.308;2024-01-30T13:58:04;5.03;;;3.05;;
37657;SDS011;23500;53.268;8.308;2024-01-30T14:00:30;5.68;;;3.20;;
37657;SDS011;23500;53.268;8.308;2024-01-30T14:02:56;5.07;;;3.33;;
37657;SDS011;23500;53.268;8.308;2024-01-30T14:05:23;4.15;;;2.90;;
37657;SDS011;23500;53.268;8.308;2024-01-30T14:07:49;4.80;;;2.72;;
37657;SDS011;23500;53.268;8.308;2024-01-30T14:10:16;3.38;;;2.78;;
37657;SDS011;23500;53.268;8.308;2024-01-30T14:12:42;4.22;;;2.88;;
37657;SDS011;23500;53.268;8.308;2024-01-30T14:15:13;4.50;;;3.00;;
37657;SDS011;23500;53.268;8.308;2024-01-30T14:17:46;4.75;;;2.70;;
37657;SDS011;23500;53.268;8.308;2024-01-30T14:20:13;3.50;;;2.80;;
37657;SDS011;23500;53.268;8.308;2024-01-30T14:22:41;3.78;;;2.53;;
37657;SDS011;23500;53.268;8.308;2024-01-30T14:25:07;4.05;;;3.10;;
37657;SDS011;23500;53.268;8.308;2024-01-30T14:27:34;4.60;;;2.88;;
37657;SDS011;23500;53.268;8.308;2024-01-30T14:30:00;6.28;;;2.95;;
37657;SDS011;23500;53.268;8.308;2024-01-30T14:32:26;4.65;;;3.22;;
37657;SDS011;23500;53.268;8.308;2024-01-30T14:34:52;2.97;;;2.70;;
37657;SDS011;23500;53.268;8.308;2024-01-30T14:37:18;3.28;;;2.78;;
37657;SDS011;23500;53.268;8.308;2024-01-30T14:39:44;4.00;;;2.97;;
37657;SDS011;23500;53.268;8.308;2024-01-30T14:42:10;3.53;;;2.90;;
37657;SDS011;23500;53.268;8.308;2024-01-30T14:44:36;4.22;;;2.80;;
37657;SDS011;23500;53.268;8.308;2024-01-30T14:47:01;5.32;;;3.08;;
37657;SDS011;23500;53.268;8.308;2024-01-30T14:49:27;3.45;;;2.60;;
37657;SDS011;23500;53.268;8.308;2024-01-30T14:51:53;3.25;;;2.80;;
37657;SDS011;23500;53.268;8.308;2024-01-30T14:54:19;4.10;;;3.20;;
37657;SDS011;23500;53.268;8.308;2024-01-30T14:56:44;3.60;;;2.72;;
37657;SDS011;23500;53.268;8.308;2024-01-30T14:59:11;4.30;;;2.55;;
37657;SDS011;23500;53.268;8.308;2024-01-30T15:01:36;3.67;;;2.78;;
37657;SDS011;23500;53.268;8.308;2024-01-30T15:04:02;3.78;;;2.60;;
37657;SDS011;23500;53.268;8.308;2024-01-30T15:06:28;3.30;;;2.60;;
37657;SDS011;23500;53.268;8.308;2024-01-30T15:08:54;3.28;;;2.72;;
37657;SDS011;23500;53.268;8.308;2024-01-30T15:11:20;6.50;;;2.95;;
37657;SDS011;23500;53.268;8.308;2024-01-30T15:13:45;5.05;;;3.05;;